Temp: 16.2°C   Hum: 72%
  Wind: 6.9mph   Dir: SW (233°)
  Rain: 0.6mm Rate: 0.0mm/hr
  Pressure: 1017.7mb

Historic data

Bath Spa Weather Station Historical Data
Daily Summary for May 22, 2022 Units:  Metric    English   Both
Daily Weekly Monthly Yearly Custom
  High: Low: Average:
Temperature: 21.9 °C 7.9 °C 15.2 °C
Dew Point: 14.1 °C 6.2 °C 10.2 °C
Humidity: 89% 55% 74%
Wind Speed: 12.6km/h 0km/h 4.7km/h
Wind Gust: 20.9km/h - -
Wind- - WSW
Pressure: 1019.5 hPa 1008 hPa -
Precipitation: 0 mm    
Historical Graphs
 
 
Tabular Data for May 22, 2022
Time Temperature Dew Point Pressure Wind Wind Speed Wind Gust Humidity Rainfall Rate (Hourly) solar
00:09 11.6 °C 8.4 °C 1019.5 hPa West 0.6 km/h 3.2 km/h 80.4% 0 mm 0 W/m2
00:14 11.5 °C 8.4 °C 1019.5 hPa Calm   1.6 km/h 81% 0 mm 0 W/m2
00:19 11.3 °C 8.2 °C 1019.5 hPa Calm     81% 0 mm 0 W/m2
00:24 11.2 °C 8.1 °C 1019.5 hPa Calm   1.6 km/h 81.4% 0 mm 0 W/m2
00:29 11 °C 8 °C 1019.5 hPa West 0.3 km/h 3.2 km/h 82% 0 mm 0 W/m2
00:34 10.9 °C 8 °C 1019.2 hPa Calm   1.6 km/h 82.4% 0 mm 0 W/m2
00:39 10.8 °C 8 °C 1019.2 hPa West 1.1 km/h 3.2 km/h 83% 0 mm 0 W/m2
00:44 10.7 °C 7.8 °C 1019.2 hPa West 0.3 km/h 1.6 km/h 83% 0 mm 0 W/m2
00:49 10.6 °C 7.8 °C 1019.2 hPa West 0.3 km/h 1.6 km/h 83% 0 mm 0 W/m2
00:54 10.5 °C 7.7 °C 1019.2 hPa West 0.3 km/h 1.6 km/h 83.2% 0 mm 0 W/m2
00:59 10.4 °C 7.7 °C 1019.2 hPa Calm     83.2% 0 mm 0 W/m2
01:04 10.3 °C 7.8 °C 1019.2 hPa Calm     84% 0 mm 0 W/m2
01:09 10.3 °C 7.7 °C 1019.2 hPa West 0.6 km/h 1.6 km/h 84% 0 mm 0 W/m2
01:14 10.2 °C 7.6 °C 1019.2 hPa West 1 km/h 3.2 km/h 84% 0 mm 0 W/m2
01:19 10.1 °C 7.5 °C 1019.2 hPa West 1.9 km/h 4.8 km/h 84% 0 mm 0 W/m2
01:24 10.1 °C 7.5 °C 1018.8 hPa West 2.6 km/h 4.8 km/h 84% 0 mm 0 W/m2
01:29 10.1 °C 7.5 °C 1018.8 hPa West 1.1 km/h 3.2 km/h 84% 0 mm 0 W/m2
01:34 10.1 °C 7.5 °C 1018.8 hPa West 0.8 km/h 3.2 km/h 84% 0 mm 0 W/m2
01:39 10.1 °C 7.5 °C 1018.8 hPa Calm   1.6 km/h 84% 0 mm 0 W/m2
01:44 10.1 °C 7.4 °C 1018.8 hPa Calm   1.6 km/h 84% 0 mm 0 W/m2
01:49 10 °C 7.4 °C 1018.8 hPa Calm     84% 0 mm 0 W/m2
01:54 9.9 °C 7.4 °C 1018.8 hPa Calm   1.6 km/h 84.3% 0 mm 0 W/m2
01:59 9.9 °C 7.5 °C 1018.8 hPa Calm     85% 0 mm 0 W/m2
02:04 9.9 °C 7.5 °C 1018.8 hPa Calm     85% 0 mm 0 W/m2
02:09 9.8 °C 7.4 °C 1018.5 hPa Calm     85% 0 mm 0 W/m2
02:14 9.8 °C 7.4 °C 1018.5 hPa Calm     85% 0 mm 0 W/m2
02:19 9.8 °C 7.4 °C 1018.5 hPa Calm     85% 0 mm 0 W/m2
02:24 9.8 °C 7.4 °C 1018.5 hPa Calm     85% 0 mm 0 W/m2
02:29 9.7 °C 7.3 °C 1018.5 hPa Calm     85% 0 mm 0 W/m2
02:34 9.7 °C 7.4 °C 1018.5 hPa Calm     85.8% 0 mm 0 W/m2
02:39 9.5 °C 7.3 °C 1018.2 hPa Calm     86% 0 mm 0 W/m2
02:44 9.3 °C 7.1 °C 1018.2 hPa Calm     86% 0 mm 0 W/m2
02:49 9.2 °C 7 °C 1018.2 hPa Calm     86% 0 mm 0 W/m2
02:54 9.2 °C 7 °C 1018.2 hPa Calm     86% 0 mm 0 W/m2
02:59 9.1 °C 6.9 °C 1018.2 hPa Calm     86% 0 mm 0 W/m2
03:04 9.2 °C 7.1 °C 1018.2 hPa Calm     86.6% 0 mm 0 W/m2
03:09 9.2 °C 7.1 °C 1018.2 hPa Calm     87% 0 mm 0 W/m2
03:14 9.2 °C 7.1 °C 1017.8 hPa West 0.3 km/h 1.6 km/h 87% 0 mm 0 W/m2
03:19 9.1 °C 7.1 °C 1017.8 hPa West 0.3 km/h 1.6 km/h 87% 0 mm 0 W/m2
03:24 8.9 °C 6.9 °C 1017.8 hPa Calm     87% 0 mm 0 W/m2
03:29 8.8 °C 6.8 °C 1017.8 hPa Calm     87% 0 mm 0 W/m2
03:34 8.8 °C 6.8 °C 1017.8 hPa Calm     87% 0 mm 0 W/m2
03:39 8.8 °C 6.8 °C 1017.8 hPa Calm   1.6 km/h 87.4% 0 mm 0 W/m2
03:44 8.8 °C 6.9 °C 1017.8 hPa Calm   1.6 km/h 88% 0 mm 0 W/m2
03:49 8.7 °C 6.8 °C 1017.5 hPa Calm     88% 0 mm 0 W/m2
03:54 8.7 °C 6.8 °C 1017.5 hPa Calm     88% 0 mm 0 W/m2
03:59 8.7 °C 6.8 °C 1017.5 hPa Calm     88% 0 mm 0 W/m2
04:04 8.7 °C 6.7 °C 1017.5 hPa Calm     88% 0 mm 0 W/m2
04:08 8.6 °C 6.7 °C 1017.5 hPa Calm     88% 0 mm 0 W/m2
04:14 8.5 °C 6.6 °C 1017.5 hPa Calm     88% 0 mm 0 W/m2
04:19 8.4 °C 6.5 °C 1017.5 hPa Calm     88% 0 mm 0 W/m2
04:24 8.4 °C 6.5 °C 1017.5 hPa Calm     88% 0 mm 0 W/m2
04:29 8.4 °C 6.5 °C 1017.5 hPa Calm     88% 0 mm 0 W/m2
04:34 8.4 °C 6.5 °C 1017.5 hPa Calm     88% 0 mm 0 W/m2
04:39 8.3 °C 6.4 °C 1017.5 hPa Calm     88% 0 mm 0 W/m2
04:44 8.3 °C 6.3 °C 1017.5 hPa Calm     88% 0 mm 0 W/m2
04:49 8.2 °C 6.3 °C 1017.5 hPa Calm     88% 0 mm 0 W/m2
04:54 8.2 °C 6.3 °C 1017.2 hPa Calm     88% 0 mm 0 W/m2
04:59 8.2 °C 6.2 °C 1017.2 hPa Calm     88% 0 mm 0 W/m2
05:04 8.1 °C 6.2 °C 1017.2 hPa Calm     88% 0 mm 0 W/m2
05:09 8.1 °C 6.2 °C 1017.2 hPa Calm     88% 0 mm 0 W/m2
05:14 8.1 °C 6.4 °C 1017.2 hPa Calm     89% 0 mm 0 W/m2
05:19 8.1 °C 6.4 °C 1017.2 hPa Calm     89% 0 mm 5 W/m2
05:24 8.1 °C 6.4 °C 1017.2 hPa Calm     89% 0 mm 7 W/m2
05:29 8 °C 6.3 °C 1016.8 hPa Calm     89% 0 mm 11 W/m2
05:34 7.9 °C 6.3 °C 1016.8 hPa Calm     89% 0 mm 14 W/m2
05:39 7.9 °C 6.2 °C 1016.8 hPa Calm     89% 0 mm 16 W/m2
05:44 7.9 °C 6.2 °C 1016.8 hPa Calm     89% 0 mm 19 W/m2
05:49 7.9 °C 6.3 °C 1016.8 hPa Calm     89% 0 mm 23 W/m2
05:54 7.9 °C 6.2 °C 1016.8 hPa Calm     89% 0 mm 25 W/m2
05:59 7.9 °C 6.2 °C 1016.8 hPa Calm     89% 0 mm 28 W/m2
06:04 7.9 °C 6.2 °C 1016.8 hPa Calm     89% 0 mm 28 W/m2
06:09 7.9 °C 6.2 °C 1016.8 hPa Calm     89% 0 mm 28 W/m2
06:14 7.9 °C 6.2 °C 1016.8 hPa Calm     89% 0 mm 28 W/m2
06:19 7.9 °C 6.2 °C 1016.8 hPa Calm     89% 0 mm 30 W/m2
06:24 7.9 °C 6.2 °C 1016.8 hPa Calm     89% 0 mm 32 W/m2
06:29 7.9 °C 6.2 °C 1016.8 hPa Calm     89% 0 mm 35 W/m2
06:34 7.9 °C 6.2 °C 1016.8 hPa Calm     89% 0 mm 44 W/m2
06:39 7.9 °C 6.2 °C 1016.8 hPa Calm     89% 0 mm 60 W/m2
06:44 8 °C 6.3 °C 1016.8 hPa West 2.4 km/h 4.8 km/h 89% 0 mm 63 W/m2
06:49 8.1 °C 6.3 °C 1016.8 hPa West 2.7 km/h 6.4 km/h 89% 0 mm 83 W/m2
06:54 8.2 °C 6.4 °C 1016.8 hPa West 2.9 km/h 6.4 km/h 89% 0 mm 91 W/m2
06:59 8.2 °C 6.6 °C 1016.8 hPa WSW 0.6 km/h 6.4 km/h 89% 0 mm 104 W/m2
07:04 8.4 °C 6.7 °C 1016.8 hPa Calm   3.2 km/h 89% 0 mm 123 W/m2
07:09 8.7 °C 6.9 °C 1016.8 hPa WSW 0.3 km/h 1.6 km/h 88.6% 0 mm 142 W/m2
07:14 8.9 °C 7.2 °C 1016.8 hPa WSW 2.9 km/h 6.4 km/h 88.8% 0 mm 156 W/m2
07:19 9.4 °C 7.7 °C 1016.8 hPa WSW 1.6 km/h 6.4 km/h 89% 0 mm 174 W/m2
07:24 9.8 °C 8.1 °C 1016.5 hPa WSW 2.7 km/h 4.8 km/h 88.6% 0 mm 192 W/m2
07:29 10.2 °C 8.3 °C 1016.5 hPa WSW 1 km/h 4.8 km/h 88% 0 mm 207 W/m2
07:34 10.5 °C 8.6 °C 1016.5 hPa Calm   3.2 km/h 88% 0 mm 221 W/m2
07:39 11 °C 9.1 °C 1016.5 hPa Calm   1.6 km/h 88% 0 mm 237 W/m2
07:44 11.9 °C 9.8 °C 1016.5 hPa WSW 2.6 km/h 6.4 km/h 86.6% 0 mm 253 W/m2
07:49 12.4 °C 9.7 °C 1016.5 hPa WSW 2.6 km/h 6.4 km/h 83.8% 0 mm 265 W/m2
07:54 13.1 °C 10 °C 1016.5 hPa SW 5.3 km/h 6.4 km/h 81.8% 0 mm 287 W/m2
07:59 13.4 °C 9.8 °C 1016.5 hPa SW 2.7 km/h 6.4 km/h 79% 0 mm 304 W/m2
08:04 13.5 °C 9.7 °C 1016.5 hPa SW 3.5 km/h 4.8 km/h 77.8% 0 mm 322 W/m2
08:09 13.7 °C 9.9 °C 1016.5 hPa SW 4 km/h 6.4 km/h 77.8% 0 mm 336 W/m2
08:14 13.8 °C 9.8 °C 1016.5 hPa SW 3.2 km/h 6.4 km/h 76.8% 0 mm 352 W/m2
08:19 14.1 °C 10 °C 1016.1 hPa SSW 5.1 km/h 9.7 km/h 76.8% 0 mm 369 W/m2
08:24 14.3 °C 10.1 °C 1016.1 hPa South 6 km/h 9.7 km/h 76% 0 mm 385 W/m2
08:29 14.6 °C 10.3 °C 1015.8 hPa South 2.7 km/h 8 km/h 75.4% 0 mm 399 W/m2
08:34 14.5 °C 10.2 °C 1015.8 hPa SSE 4 km/h 8 km/h 75.4% 0 mm 413 W/m2
08:39 14.8 °C 10.4 °C 1015.8 hPa ESE 3.5 km/h 9.7 km/h 75% 0 mm 427 W/m2
08:44 15.2 °C 10.6 °C 1015.5 hPa ESE 2.7 km/h 8 km/h 74% 0 mm 439 W/m2
08:49 15.1 °C 10.3 °C 1015.5 hPa ESE 2.6 km/h 8 km/h 73.2% 0 mm 454 W/m2
08:54 15.3 °C 10.7 °C 1015.5 hPa ESE 2.1 km/h 8 km/h 74% 0 mm 468 W/m2
08:59 15.8 °C 10.8 °C 1015.5 hPa ESE 2.4 km/h 8 km/h 72% 0 mm 480 W/m2
09:04 15.7 °C 10.7 °C 1015.1 hPa ESE 4.3 km/h 6.4 km/h 72.2% 0 mm 494 W/m2
09:09 15.8 °C 10.9 °C 1015.1 hPa ESE 3.9 km/h 8 km/h 72.6% 0 mm 504 W/m2
09:14 16.1 °C 10.9 °C 1015.1 hPa ESE 3.2 km/h 8 km/h 71.4% 0 mm 519 W/m2
09:18 16.4 °C 10.9 °C 1015.1 hPa SE 4.3 km/h 11.3 km/h 70% 0 mm 531 W/m2
09:24 16.4 °C 10.8 °C 1015.1 hPa SSE 6 km/h 11.3 km/h 69.6% 0 mm 543 W/m2
09:29 16.7 °C 10.8 °C 1015.1 hPa SSW 6.6 km/h 12.9 km/h 68.4% 0 mm 557 W/m2
09:34 16.5 °C 10.9 °C 1015.1 hPa South 7.1 km/h 12.9 km/h 69.6% 0 mm 570 W/m2
09:39 16.8 °C 11.3 °C 1015.1 hPa South 2.9 km/h 6.4 km/h 70.2% 0 mm 580 W/m2
09:44 17.7 °C 11.8 °C 1015.1 hPa South 3.9 km/h 11.3 km/h 68.6% 0 mm 592 W/m2
09:49 17.3 °C 11.4 °C 1015.1 hPa South 7.9 km/h 16.1 km/h 68% 0 mm 606 W/m2
09:54 16.8 °C 11.3 °C 1015.1 hPa South 9 km/h 17.7 km/h 70% 0 mm 626 W/m2
09:59 17.3 °C 11.5 °C 1014.8 hPa SSW 5.8 km/h 17.7 km/h 68.8% 0 mm 650 W/m2
10:04 17.3 °C 11.2 °C 1015.1 hPa South 7.9 km/h 12.9 km/h 67.4% 0 mm 707 W/m2
10:09 17.2 °C 11.2 °C 1014.8 hPa South 9 km/h 17.7 km/h 68% 0 mm 814 W/m2
10:14 17.4 °C 11.6 °C 1014.8 hPa SSW 5.3 km/h 11.3 km/h 68.4% 0 mm 837 W/m2
10:19 17.8 °C 11.6 °C 1014.8 hPa SW 7.1 km/h 16.1 km/h 67% 0 mm 642 W/m2
10:24 17.9 °C 11.8 °C 1014.8 hPa SSW 5.1 km/h 9.7 km/h 67.2% 0 mm 462 W/m2
10:29 18.1 °C 11.6 °C 1014.8 hPa SSW 4 km/h 11.3 km/h 65.8% 0 mm 418 W/m2
10:34 17.9 °C 11.4 °C 1014.8 hPa SSW 7.2 km/h 11.3 km/h 65.8% 0 mm 448 W/m2
10:39 17.6 °C 11.3 °C 1014.8 hPa SSW 7.2 km/h 11.3 km/h 66.4% 0 mm 450 W/m2
10:44 17.7 °C 11.3 °C 1014.4 hPa SW 5.3 km/h 11.3 km/h 66.4% 0 mm 446 W/m2
10:49 17.8 °C 11.4 °C 1014.4 hPa SW 7.6 km/h 16.1 km/h 66% 0 mm 526 W/m2
10:54 18 °C 11.3 °C 1014.4 hPa SSW 5.8 km/h 12.9 km/h 65% 0 mm 550 W/m2
10:59 18.1 °C 11.2 °C 1014.4 hPa SSW 6.6 km/h 12.9 km/h 64% 0 mm 589 W/m2
11:04 18.3 °C 11.4 °C 1014.4 hPa SW 6.3 km/h 16.1 km/h 64% 0 mm 696 W/m2
11:09 18.3 °C 11.3 °C 1014.4 hPa WSW 10.3 km/h 16.1 km/h 63.8% 0 mm 798 W/m2
11:14 18.4 °C 11.3 °C 1014.4 hPa WSW 6 km/h 12.9 km/h 63.2% 0 mm 1097 W/m2
11:19 18.7 °C 11.4 °C 1014.1 hPa SW 7.7 km/h 11.3 km/h 62.8% 0 mm 912 W/m2
11:24 18.7 °C 11.1 °C 1014.1 hPa SW 3.2 km/h 11.3 km/h 61.2% 0 mm 893 W/m2
11:29 18.5 °C 10.8 °C 1014.1 hPa SSW 6.4 km/h 14.5 km/h 61% 0 mm 874 W/m2
11:34 18.8 °C 11.1 °C 1013.8 hPa South 5.1 km/h 11.3 km/h 61% 0 mm 868 W/m2
11:39 19.1 °C 11.3 °C 1013.8 hPa WSW 6.6 km/h 16.1 km/h 60.6% 0 mm 889 W/m2
11:44 19.1 °C 11.3 °C 1013.8 hPa WSW 6.4 km/h 12.9 km/h 60.4% 0 mm 847 W/m2
11:49 19.2 °C 11.4 °C 1013.8 hPa WSW 7.9 km/h 14.5 km/h 60.4% 0 mm 807 W/m2
11:54 19.3 °C 11.4 °C 1013.4 hPa West 5 km/h 12.9 km/h 60.2% 0 mm 810 W/m2
11:59 19.2 °C 11.4 °C 1013.4 hPa NW 9.5 km/h 14.5 km/h 61% 0 mm 814 W/m2
12:04 19.3 °C 11.4 °C 1013.4 hPa South 6.4 km/h 17.7 km/h 60.4% 0 mm 838 W/m2
12:09 19.4 °C 11.4 °C 1013.1 hPa SW 4.7 km/h 12.9 km/h 60% 0 mm 835 W/m2
12:14 19.7 °C 11.6 °C 1013.1 hPa SW 4.8 km/h 12.9 km/h 59.4% 0 mm 833 W/m2
12:18 19.9 °C 11.6 °C 1013.1 hPa WSW 4.8 km/h 11.3 km/h 59% 0 mm 840 W/m2
12:24 20 °C 11.3 °C 1013.1 hPa SSW 7.6 km/h 12.9 km/h 57.4% 0 mm 856 W/m2
12:29 19.9 °C 11.3 °C 1013.1 hPa SSW 5.1 km/h 11.3 km/h 57.8% 0 mm 953 W/m2
12:34 20.5 °C 11.6 °C 1013.1 hPa South 7.9 km/h 12.9 km/h 56.6% 0 mm 939 W/m2
12:39 19.9 °C 11.2 °C 1012.8 hPa South 4.7 km/h 12.9 km/h 57.4% 0 mm 918 W/m2
12:44 20.2 °C 11.7 °C 1012.8 hPa SSW 6.6 km/h 14.5 km/h 58% 0 mm 918 W/m2
12:49 20.1 °C 11.6 °C 1012.8 hPa SW 7.9 km/h 14.5 km/h 58.2% 0 mm 650 W/m2
12:54 19.8 °C 11.5 °C 1012.8 hPa SW 4 km/h 11.3 km/h 58.8% 0 mm 650 W/m2
12:59 20.1 °C 11.8 °C 1012.8 hPa WSW 5 km/h 11.3 km/h 58.8% 0 mm 559 W/m2
13:04 20.4 °C 11.9 °C 1012.8 hPa WSW 5.8 km/h 14.5 km/h 58.2% 0 mm 974 W/m2
13:09 20.4 °C 11.9 °C 1012.8 hPa WSW 10.6 km/h 17.7 km/h 58.4% 0 mm 990 W/m2
13:14 20.3 °C 12 °C 1012.8 hPa West 6.9 km/h 12.9 km/h 58.6% 0 mm 947 W/m2
13:19 20.4 °C 12.1 °C 1012.8 hPa West 8.7 km/h 17.7 km/h 59.2% 0 mm 960 W/m2
13:24 20.6 °C 12.2 °C 1012.8 hPa SW 8.4 km/h 17.7 km/h 58.8% 0 mm 1034 W/m2
13:29 20 °C 11.8 °C 1012.4 hPa SW 5.8 km/h 12.9 km/h 59.4% 0 mm 538 W/m2
13:34 19.9 °C 12.2 °C 1012.4 hPa WSW 11.6 km/h 17.7 km/h 61.2% 0 mm 408 W/m2
13:39 20.4 °C 12.5 °C 1012.4 hPa WSW 7.2 km/h 16.1 km/h 60.4% 0 mm 1129 W/m2
13:44 20.6 °C 12.2 °C 1012.4 hPa SSW 5.5 km/h 11.3 km/h 58.8% 0 mm 1086 W/m2
13:49 20.6 °C 12.5 °C 1012.1 hPa SW 8.5 km/h 12.9 km/h 59.8% 0 mm 1014 W/m2
13:54 21 °C 12.4 °C 1012.1 hPa SW 9 km/h 20.9 km/h 58.2% 0 mm 1018 W/m2
13:59 20.9 °C 12.2 °C 1012.1 hPa WSW 6 km/h 14.5 km/h 57.4% 0 mm 976 W/m2
14:04 21.1 °C 12.2 °C 1012.1 hPa SW 9 km/h 14.5 km/h 56.8% 0 mm 329 W/m2
14:09 20.7 °C 11.9 °C 1011.7 hPa SSW 8 km/h 14.5 km/h 57.4% 0 mm 877 W/m2
14:14 20.8 °C 11.9 °C 1011.7 hPa SW 6.8 km/h 16.1 km/h 56.6% 0 mm 872 W/m2
14:19 20.8 °C 11.8 °C 1012.1 hPa SSW 7.2 km/h 16.1 km/h 56.2% 0 mm 909 W/m2
14:24 20.8 °C 11.9 °C 1011.7 hPa SSW 7.6 km/h 17.7 km/h 56.8% 0 mm 969 W/m2
14:29 21.4 °C 12.1 °C 1011.7 hPa SW 8.5 km/h 17.7 km/h 55.2% 0 mm 967 W/m2
14:34 21.8 °C 12.3 °C 1011.7 hPa WSW 6.4 km/h 16.1 km/h 55% 0 mm 951 W/m2
14:39 21.5 °C 12.1 °C 1011.7 hPa SSW 8.4 km/h 12.9 km/h 55% 0 mm 798 W/m2
14:44 20.7 °C 11.8 °C 1011.7 hPa SSW 8 km/h 16.1 km/h 56.8% 0 mm 1014 W/m2
14:49 20.7 °C 11.9 °C 1011.7 hPa South 6.6 km/h 12.9 km/h 57.4% 0 mm 253 W/m2
14:54 21 °C 12.2 °C 1011.4 hPa SSW 7.6 km/h 14.5 km/h 57.4% 0 mm 993 W/m2
14:59 21.4 °C 12.3 °C 1011.4 hPa SSW 6.4 km/h 16.1 km/h 56% 0 mm 930 W/m2
15:04 21.5 °C 12.4 °C 1011.4 hPa WSW 12.2 km/h 20.9 km/h 56.2% 0 mm 963 W/m2
15:09 21.3 °C 12.4 °C 1011.4 hPa SW 8 km/h 17.7 km/h 57% 0 mm 751 W/m2
15:14 21.6 °C 12.6 °C 1011.4 hPa WSW 9 km/h 14.5 km/h 56.8% 0 mm 1069 W/m2
15:19 21.3 °C 12.7 °C 1011.4 hPa SW 9.7 km/h 19.3 km/h 58% 0 mm 1032 W/m2
15:24 21.1 °C 12.6 °C 1011.1 hPa SW 6.6 km/h 17.7 km/h 58.2% 0 mm 345 W/m2
15:29 20.9 °C 12.6 °C 1011.1 hPa SW 7.1 km/h 12.9 km/h 59% 0 mm 489 W/m2
15:34 20.7 °C 12.5 °C 1011.1 hPa WSW 7.2 km/h 16.1 km/h 59.2% 0 mm 872 W/m2
15:39 21.3 °C 13 °C 1011.1 hPa WNW 9.3 km/h 17.7 km/h 59.2% 0 mm 872 W/m2
15:44 21.2 °C 13.1 °C 1011.1 hPa West 5.1 km/h 17.7 km/h 59.6% 0 mm 265 W/m2
15:49 21.3 °C 13 °C 1011.1 hPa West 6.4 km/h 11.3 km/h 58.8% 0 mm 272 W/m2
15:54 21.1 °C 12.8 °C 1010.7 hPa SSW 5.5 km/h 12.9 km/h 59% 0 mm 292 W/m2
15:59 20.9 °C 12.6 °C 1010.7 hPa South 5.8 km/h 11.3 km/h 59% 0 mm 886 W/m2
16:04 20.9 °C 12.7 °C 1010.7 hPa South 7.1 km/h 17.7 km/h 59% 0 mm 891 W/m2
16:09 20.8 °C 12.4 °C 1010.7 hPa SW 9.5 km/h 17.7 km/h 58.6% 0 mm 471 W/m2
16:14 20.7 °C 12.5 °C 1010.7 hPa WSW 5.5 km/h 12.9 km/h 59.2% 0 mm 301 W/m2
16:19 20.7 °C 12.7 °C 1010.4 hPa West 7.2 km/h 14.5 km/h 60% 0 mm 299 W/m2
16:24 20.8 °C 12.7 °C 1010.4 hPa WSW 7.1 km/h 14.5 km/h 59.6% 0 mm 819 W/m2
16:29 20.9 °C 12.8 °C 1010.4 hPa West 6 km/h 12.9 km/h 60% 0 mm 814 W/m2
16:34 21.4 °C 13.1 °C 1010.4 hPa SSW 10 km/h 17.7 km/h 59.2% 0 mm 795 W/m2
16:39 21.8 °C 13 °C 1010.4 hPa SW 6.8 km/h 14.5 km/h 57.4% 0 mm 758 W/m2
16:44 21.4 °C 13 °C 1010.4 hPa SW 10 km/h 17.7 km/h 58.8% 0 mm 715 W/m2
16:49 21 °C 13 °C 1010.4 hPa SSW 7.1 km/h 19.3 km/h 60.2% 0 mm 817 W/m2
16:54 21.5 °C 13.3 °C 1010.4 hPa SSW 6.8 km/h 14.5 km/h 59.6% 0 mm 796 W/m2
16:59 21.8 °C 13.1 °C 1010 hPa SW 8.2 km/h 14.5 km/h 57.4% 0 mm 777 W/m2
17:04 21.9 °C 13.2 °C 1010 hPa SW 6.3 km/h 14.5 km/h 57.4% 0 mm 705 W/m2
17:09 21.7 °C 12.8 °C 1010 hPa South 6.9 km/h 12.9 km/h 57.2% 0 mm 418 W/m2
17:14 21.1 °C 12.8 °C 1010 hPa SW 6.6 km/h 12.9 km/h 59% 0 mm 441 W/m2
17:19 21.2 °C 13 °C 1010 hPa SW 5.3 km/h 11.3 km/h 59.4% 0 mm 329 W/m2
17:24 21.1 °C 12.8 °C 1010 hPa SW 6.3 km/h 11.3 km/h 59.2% 0 mm 336 W/m2
17:29 20.8 °C 12.7 °C 1010 hPa SW 6.6 km/h 16.1 km/h 60% 0 mm 279 W/m2
17:34 20.7 °C 12.9 °C 1010 hPa SW 8.2 km/h 12.9 km/h 60.8% 0 mm 260 W/m2
17:39 20.6 °C 12.9 °C 1010 hPa West 8.7 km/h 14.5 km/h 61.4% 0 mm 244 W/m2
17:44 20.7 °C 13.1 °C 1009.7 hPa WSW 10.5 km/h 16.1 km/h 61.8% 0 mm 241 W/m2
17:49 20.5 °C 12.8 °C 1009.7 hPa SW 8.9 km/h 14.5 km/h 61.2% 0 mm 243 W/m2
17:54 20.4 °C 12.9 °C 1009.7 hPa WSW 9.3 km/h 19.3 km/h 61.8% 0 mm 267 W/m2
17:59 20.4 °C 12.9 °C 1009.7 hPa West 7.7 km/h 19.3 km/h 62.2% 0 mm 308 W/m2
18:04 20.4 °C 12.9 °C 1009.7 hPa West 9.3 km/h 16.1 km/h 62% 0 mm 272 W/m2
18:09 20.3 °C 13.4 °C 1009.7 hPa WNW 8.7 km/h 16.1 km/h 64.8% 0 mm 311 W/m2
18:14 20.1 °C 13.8 °C 1009.7 hPa West 12.6 km/h 19.3 km/h 67.2% 0 mm 360 W/m2
18:19 20.1 °C 14 °C 1009.7 hPa West 7.1 km/h 17.7 km/h 68% 0 mm 541 W/m2
18:24 20.3 °C 14.1 °C 1009.7 hPa West 12.6 km/h 19.3 km/h 67.6% 0 mm 548 W/m2
18:29 20.1 °C 14 °C 1009.7 hPa West 7.7 km/h 14.5 km/h 68% 0 mm 432 W/m2
18:34 19.8 °C 13.9 °C 1009.4 hPa West 7.1 km/h 16.1 km/h 68.8% 0 mm 401 W/m2
18:39 19.7 °C 13.8 °C 1009.4 hPa West 8.4 km/h 14.5 km/h 68.6% 0 mm 281 W/m2
18:44 19.4 °C 13.5 °C 1009.4 hPa West 7.4 km/h 14.5 km/h 68.4% 0 mm 315 W/m2
18:49 19.1 °C 13.3 °C 1009.4 hPa WNW 8.4 km/h 14.5 km/h 69.2% 0 mm 86 W/m2
18:54 18.6 °C 13 °C 1009.4 hPa WNW 10.6 km/h 17.7 km/h 70% 0 mm 109 W/m2
18:59 18.3 °C 13 °C 1009.4 hPa WNW 6.8 km/h 16.1 km/h 71% 0 mm 91 W/m2
19:04 18.3 °C 13 °C 1009.4 hPa WNW 9.7 km/h 16.1 km/h 71.2% 0 mm 83 W/m2
19:09 18.1 °C 12.8 °C 1009.4 hPa WNW 7.2 km/h 16.1 km/h 71% 0 mm 97 W/m2
19:14 18.1 °C 12.7 °C 1009.4 hPa WNW 8.9 km/h 16.1 km/h 70.8% 0 mm 105 W/m2
19:19 17.8 °C 12.5 °C 1009.4 hPa West 11.3 km/h 16.1 km/h 70.8% 0 mm 98 W/m2
19:24 17.7 °C 12.6 °C 1009.4 hPa WNW 9 km/h 16.1 km/h 71.8% 0 mm 90 W/m2
19:29 17.7 °C 12.5 °C 1009.4 hPa WNW 10.1 km/h 16.1 km/h 71.6% 0 mm 88 W/m2
19:34 17.5 °C 12.3 °C 1009.4 hPa WNW 11.3 km/h 16.1 km/h 71.8% 0 mm 84 W/m2
19:39 17.3 °C 12.4 °C 1009.4 hPa WNW 7.9 km/h 16.1 km/h 73% 0 mm 81 W/m2
19:44 17.2 °C 12.4 °C 1009.4 hPa WNW 9.7 km/h 16.1 km/h 73.4% 0 mm 84 W/m2
19:49 17.1 °C 12.4 °C 1009.4 hPa West 7.7 km/h 16.1 km/h 74% 0 mm 88 W/m2
19:54 16.9 °C 12.4 °C 1009.4 hPa WNW 9.7 km/h 14.5 km/h 74.6% 0 mm 86 W/m2
19:59 16.9 °C 12.4 °C 1009.4 hPa WNW 4.8 km/h 11.3 km/h 75% 0 mm 76 W/m2
20:04 16.9 °C 12.3 °C 1009.4 hPa West 7.1 km/h 14.5 km/h 74.4% 0 mm 67 W/m2
20:09 16.8 °C 12.1 °C 1009 hPa WNW 9.7 km/h 17.7 km/h 74% 0 mm 62 W/m2
20:14 16.7 °C 11.9 °C 1009 hPa West 9 km/h 16.1 km/h 74% 0 mm 46 W/m2
20:19 16.6 °C 12 °C 1009 hPa West 7.7 km/h 14.5 km/h 74.4% 0 mm 32 W/m2
20:24 16.6 °C 12.1 °C 1009 hPa West 5.8 km/h 14.5 km/h 75% 0 mm 28 W/m2
20:29 16.4 °C 12.1 °C 1009 hPa WNW 7.9 km/h 14.5 km/h 75% 0 mm 26 W/m2
20:34 16.3 °C 11.9 °C 1009 hPa WNW 9 km/h 16.1 km/h 75% 0 mm 21 W/m2
20:39 16.2 °C 11.8 °C 1009 hPa WNW 6.8 km/h 14.5 km/h 75% 0 mm 12 W/m2
20:44 16.2 °C 11.8 °C 1009 hPa WNW 7.2 km/h 12.9 km/h 75% 0 mm 11 W/m2
20:49 15.9 °C 11.6 °C 1009 hPa WNW 9.2 km/h 16.1 km/h 75% 0 mm 9 W/m2
20:54 15.7 °C 11.4 °C 1009 hPa WNW 7.2 km/h 14.5 km/h 75.2% 0 mm 7 W/m2
20:59 15.6 °C 11.4 °C 1009 hPa WNW 6.8 km/h 14.5 km/h 76% 0 mm 5 W/m2
21:04 15.4 °C 11.1 °C 1009 hPa WNW 11.9 km/h 20.9 km/h 75.4% 0 mm 0 W/m2
21:09 15.3 °C 10.9 °C 1009 hPa WNW 9.2 km/h 17.7 km/h 75% 0 mm 0 W/m2
21:14 15.2 °C 11 °C 1009 hPa WNW 9 km/h 16.1 km/h 76% 0 mm 0 W/m2
21:19 15.2 °C 11 °C 1009 hPa WNW 9.7 km/h 16.1 km/h 76% 0 mm 0 W/m2
21:24 15.1 °C 10.9 °C 1009 hPa NW 7.9 km/h 14.5 km/h 76% 0 mm 0 W/m2
21:29 15.1 °C 11.1 °C 1009 hPa WNW 9 km/h 14.5 km/h 77% 0 mm 0 W/m2
21:34 15 °C 11 °C 1009 hPa WNW 6 km/h 11.3 km/h 77% 0 mm 0 W/m2
21:38 14.9 °C 10.9 °C 1009 hPa WNW 4.3 km/h 6.4 km/h 77% 0 mm 0 W/m2
21:44 14.8 °C 10.8 °C 1009 hPa WNW 5.3 km/h 9.7 km/h 77% 0 mm 0 W/m2
21:49 14.8 °C 10.9 °C 1009 hPa WNW 5 km/h 8 km/h 78% 0 mm 0 W/m2
21:54 14.7 °C 10.9 °C 1009 hPa WNW 5.3 km/h 8 km/h 78% 0 mm 0 W/m2
21:59 14.6 °C 10.8 °C 1009 hPa WNW 6 km/h 9.7 km/h 78% 0 mm 0 W/m2
22:04 14.5 °C 10.7 °C 1009 hPa WNW 2.9 km/h 8 km/h 78% 0 mm 0 W/m2
22:09 14.4 °C 10.7 °C 1009 hPa WNW 3.2 km/h 6.4 km/h 78% 0 mm 0 W/m2
22:14 14.4 °C 10.6 °C 1009 hPa WNW 5.3 km/h 8 km/h 78% 0 mm 0 W/m2
22:19 14.4 °C 10.6 °C 1009 hPa West 5.1 km/h 11.3 km/h 78% 0 mm 0 W/m2
22:24 14.4 °C 10.6 °C 1009 hPa West 6 km/h 11.3 km/h 78% 0 mm 0 W/m2
22:29 14.4 °C 10.6 °C 1009 hPa West 6 km/h 9.7 km/h 78% 0 mm 0 W/m2
22:34 14.3 °C 10.5 °C 1009 hPa West 5 km/h 9.7 km/h 78% 0 mm 0 W/m2
22:39 14.3 °C 10.5 °C 1008.7 hPa WSW 4.8 km/h 9.7 km/h 78% 0 mm 0 W/m2
22:44 14.3 °C 10.4 °C 1008.7 hPa West 4 km/h 9.7 km/h 78% 0 mm 0 W/m2
22:49 14.2 °C 10.4 °C 1008.7 hPa West 5.6 km/h 8 km/h 78% 0 mm 0 W/m2
22:54 14.2 °C 10.4 °C 1008.7 hPa West 4.7 km/h 11.3 km/h 78% 0 mm 0 W/m2
22:59 14.2 °C 10.3 °C 1008.7 hPa West 4.3 km/h 8 km/h 78% 0 mm 0 W/m2
23:04 14.1 °C 10.3 °C 1008.7 hPa West 5.8 km/h 9.7 km/h 78% 0 mm 0 W/m2
23:09 14.1 °C 10.3 °C 1008.7 hPa West 4.7 km/h 8 km/h 78% 0 mm 0 W/m2
23:14 14.1 °C 10.3 °C 1008.4 hPa WNW 6 km/h 9.7 km/h 78% 0 mm 0 W/m2
23:19 14.1 °C 10.2 °C 1008.4 hPa WNW 4.5 km/h 9.7 km/h 78% 0 mm 0 W/m2
23:24 14 °C 10.2 °C 1008.4 hPa WNW 5.8 km/h 9.7 km/h 78% 0 mm 0 W/m2
23:29 13.9 °C 10.1 °C 1008.4 hPa WNW 3.9 km/h 8 km/h 78% 0 mm 0 W/m2
23:34 13.9 °C 10.2 °C 1008.4 hPa WNW 4.3 km/h 8 km/h 78.4% 0 mm 0 W/m2
23:39 13.9 °C 10.3 °C 1008.4 hPa West 5.5 km/h 8 km/h 79% 0 mm 0 W/m2
23:44 13.9 °C 10.3 °C 1008 hPa West 6.3 km/h 9.7 km/h 79% 0 mm 0 W/m2
23:49 13.9 °C 10.3 °C 1008 hPa West 5.5 km/h 9.7 km/h 79% 0 mm 0 W/m2
23:54 13.9 °C 10.3 °C 1008 hPa West 5.8 km/h 11.3 km/h 79% 0 mm 0 W/m2
23:59 13.8 °C 10.2 °C 1008 hPa WNW 7.1 km/h 9.7 km/h 79% 0 mm 0 W/m2
Bath Spa Weather
Compliments of Weather Underground - 2 mb